createdAt,value
2018-03-02T00:00:22.977Z,83.53
2018-03-02T00:02:49.309Z,83.52
2018-03-02T00:05:15.735Z,83.75
2018-03-02T00:07:42.151Z,84.25
2018-03-02T00:10:08.521Z,84.22
2018-03-02T00:12:34.837Z,84.84
2018-03-02T00:15:01.333Z,84.30
2018-03-02T00:17:27.913Z,84.62
2018-03-02T00:19:54.269Z,85.03
2018-03-02T00:22:20.852Z,84.99
2018-03-02T00:24:47.306Z,84.90
2018-03-02T00:27:13.749Z,85.26
2018-03-02T00:29:40.125Z,85.49
2018-03-02T00:32:06.432Z,86.06
2018-03-02T00:34:32.757Z,85.76
2018-03-02T00:36:59.108Z,85.73
2018-03-02T00:39:25.549Z,85.22
2018-03-02T00:41:51.923Z,84.65
2018-03-02T00:44:18.259Z,84.56
2018-03-02T00:46:44.632Z,85.19
2018-03-02T00:49:11.031Z,85.72
2018-03-02T00:51:37.427Z,85.87
2018-03-02T00:54:03.838Z,85.78
2018-03-02T00:56:30.163Z,85.52
2018-03-02T00:58:56.556Z,85.83
2018-03-02T01:01:23.019Z,85.73
2018-03-02T01:03:49.417Z,85.85
2018-03-02T01:06:15.750Z,85.43
2018-03-02T01:08:42.067Z,85.31
2018-03-02T01:11:08.561Z,85.80
2018-03-02T01:13:34.955Z,85.92
2018-03-02T01:16:01.242Z,85.99
2018-03-02T01:18:27.555Z,86.11
2018-03-02T01:20:53.952Z,85.66
2018-03-02T01:23:20.364Z,85.26
2018-03-02T01:25:46.716Z,85.26
2018-03-02T01:28:13.040Z,85.09
2018-03-02T01:30:39.484Z,85.18
2018-03-02T01:33:05.802Z,84.72
2018-03-02T01:35:32.124Z,84.81
2018-03-02T01:37:58.553Z,85.00
2018-03-02T01:40:24.967Z,84.66
2018-03-02T01:42:51.300Z,85.33
2018-03-02T01:45:17.694Z,85.33
2018-03-02T01:47:44.097Z,85.09
2018-03-02T01:50:10.423Z,85.12
2018-03-02T01:52:36.858Z,85.44
2018-03-02T01:55:03.249Z,85.73
2018-03-02T01:57:29.522Z,86.14
2018-03-02T01:59:55.941Z,85.34
2018-03-02T02:02:22.286Z,85.69
2018-03-02T02:04:48.718Z,85.59
2018-03-02T02:07:15.096Z,85.83
2018-03-02T02:09:41.554Z,86.42
2018-03-02T02:12:07.978Z,86.41
2018-03-02T02:14:34.356Z,86.46
2018-03-02T02:17:00.670Z,86.62
2018-03-02T02:19:27.079Z,86.98
2018-03-02T02:21:53.514Z,86.55
2018-03-02T02:24:19.872Z,86.62
2018-03-02T02:26:46.175Z,86.88
2018-03-02T02:29:12.533Z,86.58
2018-03-02T02:31:38.918Z,86.71
2018-03-02T02:34:05.266Z,86.76
2018-03-02T02:36:31.632Z,87.16
2018-03-02T02:38:58.027Z,87.04
2018-03-02T02:41:24.469Z,86.51
2018-03-02T02:43:50.822Z,86.89
2018-03-02T02:46:17.129Z,86.30
2018-03-02T02:48:43.550Z,86.24
2018-03-02T02:51:09.955Z,85.80
2018-03-02T02:53:36.259Z,86.04
2018-03-02T02:56:02.629Z,85.76
2018-03-02T02:58:28.997Z,85.66
2018-03-02T03:00:55.417Z,85.55
2018-03-02T03:03:21.718Z,86.00
2018-03-02T03:05:48.139Z,85.74
2018-03-02T03:08:14.454Z,86.02
2018-03-02T03:10:41.057Z,86.19
2018-03-02T03:13:11.142Z,85.53
2018-03-02T03:15:40.142Z,85.64
2018-03-02T03:18:09.929Z,85.30
2018-03-02T03:20:40.106Z,85.57
2018-03-02T03:23:10.176Z,85.89
2018-03-02T03:25:41.250Z,85.41
2018-03-02T03:28:11.040Z,85.76
2018-03-02T03:30:40.815Z,85.93
2018-03-02T03:33:08.473Z,85.91
2018-03-02T03:35:36.061Z,85.99
2018-03-02T03:38:02.677Z,86.19
2018-03-02T03:40:31.940Z,86.09
2018-03-02T03:42:59.071Z,86.45
2018-03-02T03:45:26.301Z,86.68
2018-03-02T03:47:55.664Z,86.78
2018-03-02T03:50:26.316Z,86.87
2018-03-02T03:52:54.393Z,86.79
2018-03-02T03:55:20.815Z,86.94
2018-03-02T03:57:47.131Z,87.38
2018-03-02T04:00:13.535Z,87.61
2018-03-02T04:02:39.898Z,87.71
2018-03-02T04:05:06.247Z,87.52
2018-03-02T04:07:32.610Z,87.69
2018-03-02T04:09:59.051Z,87.67
2018-03-02T04:12:25.930Z,87.67
2018-03-02T04:14:52.344Z,87.43
2018-03-02T04:17:18.658Z,87.32
2018-03-02T04:19:45.091Z,87.38
2018-03-02T04:22:11.552Z,86.77
2018-03-02T04:24:37.885Z,86.74
2018-03-02T04:27:04.196Z,86.59
2018-03-02T04:29:30.739Z,86.69
2018-03-02T04:31:57.083Z,86.33
2018-03-02T04:34:23.465Z,86.20
2018-03-02T04:36:49.891Z,86.53
2018-03-02T04:39:16.309Z,86.64
2018-03-02T04:41:43.695Z,86.70
2018-03-02T04:44:10.020Z,86.32
2018-03-02T04:46:36.393Z,86.27
2018-03-02T04:49:02.775Z,86.33
2018-03-02T04:51:29.148Z,86.72
2018-03-02T04:53:55.451Z,87.05
2018-03-02T04:56:21.755Z,86.56
2018-03-02T04:58:48.134Z,86.57
2018-03-02T05:01:14.586Z,86.90
2018-03-02T05:03:40.918Z,86.94
2018-03-02T05:06:07.312Z,87.20
2018-03-02T05:08:33.677Z,87.12
2018-03-02T05:11:00.248Z,87.39
2018-03-02T05:13:26.622Z,87.75
2018-03-02T05:15:52.993Z,88.17
2018-03-02T05:18:19.334Z,87.93
2018-03-02T05:20:45.894Z,87.83
2018-03-02T05:23:12.215Z,88.02
2018-03-02T05:25:38.527Z,87.80
2018-03-02T05:28:04.933Z,87.87
2018-03-02T05:30:31.540Z,87.58
2018-03-02T05:32:58.009Z,87.80
2018-03-02T05:35:25.244Z,87.83
2018-03-02T05:37:51.557Z,87.35
2018-03-02T05:40:18.125Z,87.11
2018-03-02T05:42:44.458Z,86.71
2018-03-02T05:45:10.829Z,86.32
2018-03-02T05:47:37.180Z,86.42
2018-03-02T05:50:03.564Z,86.59
2018-03-02T05:52:29.876Z,86.50
2018-03-02T05:54:56.204Z,86.23
2018-03-02T05:57:22.551Z,86.40
2018-03-02T05:59:48.955Z,86.52
2018-03-02T06:02:15.541Z,86.68
2018-03-02T06:04:43.592Z,86.24
2018-03-02T06:07:10.228Z,86.93
2018-03-02T06:09:37.660Z,86.50
2018-03-02T06:12:04.142Z,86.24
2018-03-02T06:14:30.587Z,85.90
2018-03-02T06:16:57.080Z,85.76
2018-03-02T06:19:23.514Z,84.39
2018-03-02T06:21:49.841Z,84.09
2018-03-02T06:24:16.203Z,83.30
2018-03-02T06:26:42.658Z,82.91
2018-03-02T06:29:09.212Z,82.40
2018-03-02T06:31:35.546Z,81.58
2018-03-02T06:34:02.390Z,81.77
2018-03-02T06:36:28.782Z,80.99
2018-03-02T06:38:55.592Z,79.89
2018-03-02T06:41:23.132Z,79.12
2018-03-02T06:43:49.563Z,78.21
2018-03-02T06:46:15.970Z,77.52
2018-03-02T06:48:42.469Z,77.06
2018-03-02T06:51:08.862Z,77.27
2018-03-02T06:53:35.468Z,77.61
2018-03-02T06:56:01.877Z,77.36
2018-03-02T06:58:28.228Z,77.36
2018-03-02T07:00:54.624Z,77.29
2018-03-02T07:03:20.998Z,77.70
2018-03-02T07:05:47.376Z,77.44
2018-03-02T07:08:13.769Z,78.06
2018-03-02T07:10:40.208Z,78.60
2018-03-02T07:13:06.765Z,80.27
2018-03-02T07:15:33.329Z,81.17
2018-03-02T07:17:59.767Z,81.94
2018-03-02T07:20:26.210Z,82.68
2018-03-02T07:22:52.635Z,82.64
2018-03-02T07:25:19.029Z,82.72
2018-03-02T07:27:45.358Z,83.40
2018-03-02T07:30:11.785Z,83.47
2018-03-02T07:32:38.236Z,82.77
2018-03-02T07:35:04.607Z,82.55
2018-03-02T07:37:30.980Z,82.13
2018-03-02T07:39:57.376Z,82.27
2018-03-02T07:42:23.705Z,83.18
2018-03-02T07:44:50.152Z,83.78
2018-03-02T07:47:16.563Z,84.97
2018-03-02T07:49:43.999Z,85.49
2018-03-02T07:52:10.498Z,85.63
2018-03-02T07:54:36.930Z,85.71
2018-03-02T07:57:03.433Z,85.26
2018-03-02T07:59:29.823Z,85.91
2018-03-02T08:01:56.296Z,85.26
2018-03-02T08:04:22.705Z,85.21
2018-03-02T08:06:49.050Z,84.38
2018-03-02T08:09:15.488Z,84.09
2018-03-02T08:11:47.225Z,82.64
2018-03-02T08:14:13.646Z,82.86
2018-03-02T08:16:40.081Z,83.75
2018-03-02T08:19:06.440Z,83.37
2018-03-02T08:21:34.880Z,83.53
2018-03-02T08:24:01.330Z,83.68
2018-03-02T08:26:27.881Z,84.44
2018-03-02T08:28:54.282Z,84.26
2018-03-02T08:31:21.997Z,84.41
2018-03-02T08:33:48.466Z,85.40
2018-03-02T08:36:14.968Z,84.82
2018-03-02T08:38:41.471Z,83.43
2018-03-02T08:41:08.977Z,83.99
2018-03-02T08:43:35.511Z,83.35
2018-03-02T08:46:02.095Z,83.56
2018-03-02T08:48:28.677Z,84.85
2018-03-02T08:50:55.231Z,84.09
2018-03-02T08:53:21.859Z,83.91
2018-03-02T08:55:48.250Z,83.46
2018-03-02T08:58:15.631Z,83.75
2018-03-02T09:00:59.615Z,83.10
2018-03-02T09:03:26.020Z,81.76
2018-03-02T09:05:52.408Z,80.20
2018-03-02T09:08:18.998Z,76.61
2018-03-02T09:10:45.652Z,75.60
2018-03-02T09:13:12.346Z,74.53
2018-03-02T09:15:38.970Z,69.57
2018-03-02T09:18:05.399Z,69.92
2018-03-02T09:20:36.579Z,70.76
2018-03-02T09:23:04.032Z,70.09
2018-03-02T09:25:30.457Z,68.45
2018-03-02T09:27:56.857Z,66.01
2018-03-02T09:30:24.374Z,65.89
2018-03-02T09:32:50.770Z,66.21
2018-03-02T09:35:17.189Z,65.03
2018-03-02T09:37:43.647Z,64.82
2018-03-02T09:40:11.144Z,66.35
2018-03-02T09:42:37.522Z,65.00
2018-03-02T09:45:03.977Z,66.53
2018-03-02T09:47:30.391Z,65.95
2018-03-02T09:49:56.869Z,65.28
2018-03-02T09:52:23.341Z,67.46
2018-03-02T09:54:49.988Z,66.42
2018-03-02T09:57:16.323Z,66.60
2018-03-02T09:59:42.808Z,69.76
2018-03-02T10:02:09.156Z,71.71
2018-03-02T10:04:35.579Z,70.52
2018-03-02T10:07:01.951Z,70.60
2018-03-02T10:09:28.420Z,72.83
2018-03-02T10:11:54.868Z,71.69
2018-03-02T10:14:21.265Z,71.89
2018-03-02T10:16:47.722Z,72.16
2018-03-02T10:19:14.395Z,73.38
2018-03-02T10:21:40.881Z,72.67
2018-03-02T10:24:07.266Z,73.14
2018-03-02T10:26:33.745Z,72.37
2018-03-02T10:29:00.188Z,71.54
2018-03-02T10:31:26.665Z,71.56
2018-03-02T10:33:53.095Z,72.22
2018-03-02T10:36:19.490Z,71.73
2018-03-02T10:38:45.916Z,71.59
2018-03-02T10:41:12.503Z,71.03
2018-03-02T10:43:38.975Z,71.37
2018-03-02T10:46:05.467Z,71.00
2018-03-02T10:48:31.928Z,70.16
2018-03-02T10:50:59.788Z,69.87
2018-03-02T10:53:26.214Z,70.25
2018-03-02T10:55:52.702Z,70.08
2018-03-02T10:58:19.260Z,69.48
2018-03-02T11:00:51.607Z,68.35
2018-03-02T11:03:23.071Z,69.03
2018-03-02T11:05:49.473Z,68.15
2018-03-02T11:08:15.863Z,68.13
2018-03-02T11:10:42.352Z,68.93
2018-03-02T11:13:08.753Z,69.22
2018-03-02T11:15:35.159Z,69.66
2018-03-02T11:18:01.620Z,67.95
2018-03-02T11:20:28.038Z,68.15
2018-03-02T11:22:54.620Z,68.00
2018-03-02T11:25:21.160Z,67.78
2018-03-02T11:27:47.593Z,67.20
2018-03-02T11:30:14.023Z,66.85
2018-03-02T11:32:40.398Z,66.84
2018-03-02T11:35:06.741Z,64.73
2018-03-02T11:37:33.184Z,64.43
2018-03-02T11:39:59.733Z,63.37
2018-03-02T11:42:26.315Z,64.26
2018-03-02T11:44:52.803Z,65.18
2018-03-02T11:47:19.225Z,64.57
2018-03-02T11:49:45.691Z,65.13
2018-03-02T11:52:12.217Z,65.42
2018-03-02T11:54:39.101Z,66.27
2018-03-02T11:57:05.587Z,66.55
2018-03-02T11:59:31.944Z,66.35
2018-03-02T12:01:58.400Z,67.04
2018-03-02T12:04:24.816Z,66.85
2018-03-02T12:06:51.208Z,67.79
2018-03-02T12:09:17.555Z,68.57
2018-03-02T12:11:44.017Z,66.93
2018-03-02T12:14:10.476Z,66.22
2018-03-02T12:16:36.944Z,64.84
2018-03-02T12:19:03.334Z,64.68
2018-03-02T12:21:29.795Z,62.60
2018-03-02T12:23:56.223Z,63.38
2018-03-02T12:26:22.623Z,63.32
2018-03-02T12:28:49.000Z,62.75
2018-03-02T12:31:15.510Z,61.79
2018-03-02T12:33:41.948Z,63.23
2018-03-02T12:36:08.315Z,63.21
2018-03-02T12:38:34.813Z,63.46
2018-03-02T12:41:01.325Z,63.45
2018-03-02T12:43:27.729Z,63.88
2018-03-02T12:45:54.125Z,64.44
2018-03-02T12:48:20.679Z,64.38
2018-03-02T12:50:47.115Z,63.71
2018-03-02T12:53:13.493Z,63.67
2018-03-02T12:55:39.959Z,64.51
2018-03-02T12:58:06.322Z,65.40
2018-03-02T13:00:32.792Z,66.50
2018-03-02T13:02:59.173Z,67.57
2018-03-02T13:05:25.511Z,67.65
2018-03-02T13:07:51.973Z,68.50
2018-03-02T13:10:18.473Z,70.24
2018-03-02T13:12:44.831Z,70.21
2018-03-02T13:15:11.227Z,71.21
2018-03-02T13:17:37.958Z,71.34
2018-03-02T13:20:05.498Z,70.12
2018-03-02T13:22:37.029Z,69.37
2018-03-02T13:25:03.435Z,69.37
2018-03-02T13:27:41.886Z,69.45
2018-03-02T13:30:08.305Z,69.88
2018-03-02T13:32:34.854Z,70.59
2018-03-02T13:35:10.378Z,70.99
2018-03-02T13:37:36.972Z,72.18
2018-03-02T13:40:15.676Z,72.81
2018-03-02T13:42:42.189Z,73.59
2018-03-02T13:45:08.658Z,74.51
2018-03-02T13:50:37.397Z,74.54
2018-03-02T13:53:03.904Z,75.25
2018-03-02T13:55:30.266Z,75.20
2018-03-02T13:58:04.623Z,75.25
2018-03-02T14:00:31.114Z,75.72
2018-03-02T14:03:09.586Z,76.28
2018-03-02T14:05:35.988Z,76.53
2018-03-02T14:08:02.424Z,77.50
2018-03-02T14:10:28.952Z,78.08
2018-03-02T14:12:55.313Z,79.23
2018-03-02T14:15:21.706Z,79.87
2018-03-02T14:17:48.162Z,79.42
2018-03-02T14:20:14.577Z,79.74
2018-03-02T14:22:40.981Z,81.79
2018-03-02T14:25:07.741Z,82.97
2018-03-02T14:27:34.150Z,84.45
2018-03-02T14:30:01.544Z,83.76
2018-03-02T14:32:27.951Z,83.02
2018-03-02T14:34:54.426Z,84.38
2018-03-02T14:37:20.762Z,83.76
2018-03-02T14:39:47.233Z,83.21
2018-03-02T14:42:13.626Z,82.59
2018-03-02T14:44:40.022Z,82.99
2018-03-02T14:47:06.464Z,82.71
2018-03-02T14:49:32.902Z,83.05
2018-03-02T14:51:59.433Z,82.53
2018-03-02T14:54:25.997Z,82.85
2018-03-02T14:56:52.498Z,84.09
2018-03-02T14:59:19.031Z,83.97
2018-03-02T15:01:46.215Z,83.49
2018-03-02T15:04:12.665Z,84.31
2018-03-02T15:06:39.048Z,84.72
2018-03-02T15:09:05.487Z,85.89
2018-03-02T15:11:33.137Z,87.18
2018-03-02T15:13:59.647Z,87.67
2018-03-02T15:16:26.092Z,88.24
2018-03-02T15:18:52.530Z,88.04
2018-03-02T15:21:19.113Z,88.10
2018-03-02T15:23:45.586Z,87.45
2018-03-02T15:26:11.969Z,87.22
2018-03-02T15:28:38.377Z,86.53
2018-03-02T15:31:04.878Z,86.52
2018-03-02T15:33:31.282Z,86.21
2018-03-02T15:35:57.769Z,85.98
2018-03-02T15:38:24.387Z,85.99
2018-03-02T15:40:50.973Z,86.55
2018-03-02T15:43:17.618Z,86.77
2018-03-02T15:45:44.133Z,86.57
2018-03-02T15:48:11.546Z,86.93
2018-03-02T15:50:38.012Z,86.82
2018-03-02T15:53:04.453Z,86.92
2018-03-02T15:55:31.022Z,86.46
2018-03-02T15:57:57.534Z,86.66
2018-03-02T16:00:23.995Z,86.91
2018-03-02T16:02:50.581Z,87.07
2018-03-02T16:05:16.958Z,87.79
2018-03-02T16:07:43.462Z,87.52
2018-03-02T16:10:11.085Z,87.73
2018-03-02T16:12:37.743Z,87.93
2018-03-02T16:15:04.203Z,88.04
2018-03-02T16:17:30.566Z,88.33
2018-03-02T16:19:57.050Z,88.65
2018-03-02T16:22:23.764Z,88.79
2018-03-02T16:24:50.645Z,89.62
2018-03-02T16:27:17.106Z,89.35
2018-03-02T16:29:43.647Z,89.86
2018-03-02T16:32:10.594Z,90.17
2018-03-02T16:34:37.227Z,90.38
2018-03-02T16:37:03.671Z,90.90
2018-03-02T16:39:30.119Z,91.06
2018-03-02T16:41:56.629Z,91.67
2018-03-02T16:44:23.250Z,91.57
2018-03-02T16:46:49.749Z,91.81
2018-03-02T16:49:16.138Z,92.41
2018-03-02T16:51:42.825Z,92.54
2018-03-02T16:54:09.395Z,91.92
2018-03-02T16:56:35.813Z,91.81
2018-03-02T16:59:02.475Z,91.39
2018-03-02T17:01:29.105Z,91.10
2018-03-02T17:03:55.856Z,91.39
2018-03-02T17:06:23.069Z,91.40
2018-03-02T17:08:49.647Z,91.49
2018-03-02T17:11:16.267Z,91.28
2018-03-02T17:13:42.888Z,91.99
2018-03-02T17:16:09.600Z,91.78
2018-03-02T17:18:36.778Z,92.22
2018-03-02T17:21:04.516Z,92.90
2018-03-02T17:23:32.630Z,92.98
2018-03-02T17:25:59.780Z,92.62
2018-03-02T17:28:27.211Z,92.42
2018-03-02T17:30:56.469Z,92.68
2018-03-02T17:33:24.524Z,92.75
2018-03-02T17:35:51.966Z,93.29
2018-03-02T17:38:19.462Z,92.90
2018-03-02T17:40:48.119Z,93.24
2018-03-02T17:43:16.059Z,93.21
2018-03-02T17:45:44.856Z,93.35
2018-03-02T17:48:12.523Z,93.81
2018-03-02T17:50:39.535Z,93.85
2018-03-02T17:53:06.291Z,93.70
2018-03-02T17:55:33.444Z,93.71
2018-03-02T17:58:00.390Z,94.05
2018-03-02T18:00:27.796Z,94.32
2018-03-02T18:02:54.509Z,94.21
2018-03-02T18:05:21.326Z,94.15
2018-03-02T18:07:48.079Z,94.30
2018-03-02T18:10:15.015Z,94.22
2018-03-02T18:12:42.208Z,94.36
2018-03-02T18:15:08.770Z,94.28
2018-03-02T18:17:35.423Z,93.55
2018-03-02T18:20:02.424Z,94.19
2018-03-02T18:22:29.344Z,94.42
2018-03-02T18:24:55.964Z,94.50
2018-03-02T18:27:22.831Z,94.48
2018-03-02T18:29:49.376Z,94.20
2018-03-02T18:32:16.260Z,95.13
2018-03-02T18:34:43.034Z,94.77
2018-03-02T18:37:09.523Z,95.14
2018-03-02T18:39:36.077Z,94.46
2018-03-02T18:42:02.745Z,95.30
2018-03-02T18:44:29.320Z,94.86
2018-03-02T18:46:55.851Z,94.43
2018-03-02T18:49:22.346Z,94.99
2018-03-02T18:51:48.842Z,94.08
2018-03-02T18:54:15.478Z,94.19
2018-03-02T18:56:42.123Z,94.10
2018-03-02T18:59:08.744Z,93.25
2018-03-02T19:01:35.509Z,92.84
2018-03-02T19:04:02.163Z,93.11
2018-03-02T19:06:28.701Z,93.04
2018-03-02T19:08:55.351Z,92.57
2018-03-02T19:11:22.431Z,93.08
2018-03-02T19:13:49.134Z,92.75
2018-03-02T19:16:15.653Z,92.44
2018-03-02T19:18:42.232Z,92.87
2018-03-02T19:21:08.986Z,92.46
2018-03-02T19:23:35.685Z,92.38
2018-03-02T19:26:02.411Z,92.54
2018-03-02T19:28:28.833Z,92.44
2018-03-02T19:30:55.489Z,91.99
2018-03-02T19:33:22.642Z,92.17
2018-03-02T19:35:49.328Z,92.15
2018-03-02T19:38:16.069Z,92.56
2018-03-02T19:40:42.924Z,92.01
2018-03-02T19:43:09.938Z,92.13
2018-03-02T19:45:36.794Z,91.90
2018-03-02T19:48:03.634Z,91.60
2018-03-02T19:50:30.525Z,91.83
2018-03-02T19:52:57.274Z,91.08
2018-03-02T19:55:23.911Z,90.88
2018-03-02T19:57:50.504Z,90.64
2018-03-02T20:00:17.840Z,90.55
2018-03-02T20:02:44.739Z,90.64
2018-03-02T20:05:11.500Z,90.70
2018-03-02T20:07:38.261Z,90.86
2018-03-02T20:10:05.111Z,90.54
2018-03-02T20:12:31.938Z,90.88
2018-03-02T20:14:58.975Z,91.04
2018-03-02T20:17:25.793Z,90.67
2018-03-02T20:19:52.415Z,90.99
2018-03-02T20:22:19.101Z,91.28
2018-03-02T20:24:45.993Z,91.55
2018-03-02T20:27:12.689Z,91.44
2018-03-02T20:29:39.321Z,91.48
2018-03-02T20:32:06.112Z,91.67
2018-03-02T20:34:33.340Z,91.75
2018-03-02T20:36:59.805Z,91.70
2018-03-02T20:39:26.464Z,92.45
2018-03-02T20:41:53.104Z,92.16
2018-03-02T20:44:19.566Z,92.19
2018-03-02T20:46:46.048Z,92.08
2018-03-02T20:49:12.819Z,92.19
2018-03-02T20:51:39.345Z,91.88
2018-03-02T20:54:06.596Z,92.10
2018-03-02T20:56:33.212Z,92.32
2018-03-02T20:58:59.603Z,92.46
2018-03-02T21:01:26.044Z,92.44
2018-03-02T21:03:52.565Z,92.55
2018-03-02T21:06:18.967Z,92.24
2018-03-02T21:08:45.519Z,91.76
2018-03-02T21:11:12.264Z,92.16
2018-03-02T21:13:38.744Z,93.51
2018-03-02T21:16:05.261Z,94.91
2018-03-02T21:18:31.630Z,95.46
2018-03-02T21:20:58.234Z,95.76
2018-03-02T21:23:24.640Z,95.68
2018-03-02T21:25:51.046Z,96.33
2018-03-02T21:28:17.425Z,95.69
2018-03-02T21:30:43.828Z,95.91
2018-03-02T21:33:10.393Z,95.96
2018-03-02T21:35:36.851Z,96.23
2018-03-02T21:38:03.435Z,96.06
2018-03-02T21:40:29.944Z,95.89
2018-03-02T21:42:56.338Z,96.15
2018-03-02T21:45:22.692Z,96.69
2018-03-02T21:47:49.264Z,96.51
2018-03-02T21:50:15.739Z,97.06
2018-03-02T21:52:42.520Z,96.74
2018-03-02T21:55:08.906Z,96.42
2018-03-02T21:57:35.242Z,96.29
2018-03-02T22:00:01.996Z,95.98
2018-03-02T22:02:28.454Z,96.15
2018-03-02T22:04:54.888Z,96.09
2018-03-02T22:07:21.350Z,96.08
2018-03-02T22:09:47.727Z,96.03
2018-03-02T22:12:14.217Z,95.93
2018-03-02T22:14:40.618Z,95.96
2018-03-02T22:17:07.110Z,95.88
2018-03-02T22:19:33.491Z,95.13
2018-03-02T22:21:59.998Z,95.32
2018-03-02T22:24:26.401Z,94.85
2018-03-02T22:26:53.298Z,95.51
2018-03-02T22:29:20.119Z,94.95
2018-03-02T22:31:46.628Z,95.43
2018-03-02T22:34:13.099Z,95.82
2018-03-02T22:36:39.597Z,94.84
2018-03-02T22:39:06.020Z,94.74
2018-03-02T22:41:32.544Z,94.72
2018-03-02T22:43:58.976Z,94.66
2018-03-02T22:46:25.407Z,94.98
2018-03-02T22:48:51.841Z,94.61
2018-03-02T22:51:18.312Z,94.58
2018-03-02T22:53:44.676Z,94.85
2018-03-02T22:56:11.149Z,95.23
2018-03-02T22:58:37.582Z,95.83
2018-03-02T23:01:04.009Z,95.78
2018-03-02T23:03:30.415Z,95.92
2018-03-02T23:05:56.789Z,95.61
2018-03-02T23:08:23.115Z,95.35
2018-03-02T23:10:49.689Z,95.33
2018-03-02T23:13:16.066Z,94.97
2018-03-02T23:15:42.386Z,94.70
2018-03-02T23:18:08.736Z,94.89
2018-03-02T23:20:35.221Z,94.98
2018-03-02T23:23:02.073Z,94.19
2018-03-02T23:25:28.502Z,93.33
2018-03-02T23:27:54.881Z,93.02
2018-03-02T23:30:21.232Z,92.98
2018-03-02T23:32:47.561Z,92.69
2018-03-02T23:35:13.992Z,92.72
2018-03-02T23:37:40.331Z,92.19
2018-03-02T23:40:06.729Z,92.71
2018-03-02T23:42:33.128Z,92.50
2018-03-02T23:44:59.479Z,92.31
2018-03-02T23:47:25.832Z,92.47
2018-03-02T23:49:52.248Z,92.76
2018-03-02T23:52:18.719Z,92.24
2018-03-02T23:54:45.055Z,92.51
2018-03-02T23:57:11.536Z,92.67
2018-03-02T23:59:38.392Z,92.14
